sensor_id;sensor_type;location;lat;lon;timestamp;pressure;altitude;pressure_sealevel;temperature;humidity
77288;BME280;66345;42.694;23.346;2023-10-08T00:02:45;95981.31;;;10.83;56.70
77288;BME280;66345;42.694;23.346;2023-10-08T00:05:11;95979.91;;;10.96;56.22
77288;BME280;66345;42.694;23.346;2023-10-08T00:07:40;95978.34;;;11.01;55.14
77288;BME280;66345;42.694;23.346;2023-10-08T00:10:08;95973.44;;;11.13;56.00
77288;BME280;66345;42.694;23.346;2023-10-08T00:12:33;95974.31;;;11.05;56.35
77288;BME280;66345;42.694;23.346;2023-10-08T00:15:00;95955.84;;;10.74;57.15
77288;BME280;66345;42.694;23.346;2023-10-08T00:17:26;95964.97;;;10.72;57.68
77288;BME280;66345;42.694;23.346;2023-10-08T00:19:51;95967.91;;;11.00;56.76
77288;BME280;66345;42.694;23.346;2023-10-08T00:22:18;95982.56;;;11.10;56.05
77288;BME280;66345;42.694;23.346;2023-10-08T00:24:44;95955.03;;;11.11;54.89
77288;BME280;66345;42.694;23.346;2023-10-08T00:27:20;95955.03;;;11.11;55.29
77288;BME280;66345;42.694;23.346;2023-10-08T00:29:47;95961.41;;;11.17;55.30
77288;BME280;66345;42.694;23.346;2023-10-08T00:32:12;95951.09;;;11.22;55.46
77288;BME280;66345;42.694;23.346;2023-10-08T00:34:42;95953.75;;;11.22;54.40
77288;BME280;66345;42.694;23.346;2023-10-08T00:37:09;95946.88;;;11.13;54.06
77288;BME280;66345;42.694;23.346;2023-10-08T00:39:36;95959.59;;;11.18;54.56
77288;BME280;66345;42.694;23.346;2023-10-08T00:42:03;95964.78;;;11.34;54.38
77288;BME280;66345;42.694;23.346;2023-10-08T00:44:38;95934.09;;;10.94;55.46
77288;BME280;66345;42.694;23.346;2023-10-08T00:47:07;95929.50;;;10.88;56.49
77288;BME280;66345;42.694;23.346;2023-10-08T00:49:33;95939.03;;;10.82;56.23
77288;BME280;66345;42.694;23.346;2023-10-08T00:52:09;95947.03;;;10.97;55.78
77288;BME280;66345;42.694;23.346;2023-10-08T00:54:36;95935.91;;;10.93;55.62
77288;BME280;66345;42.694;23.346;2023-10-08T00:57:25;95924.13;;;10.96;54.75
77288;BME280;66345;42.694;23.346;2023-10-08T00:59:51;95946.75;;;11.06;53.78
77288;BME280;66345;42.694;23.346;2023-10-08T01:02:22;95936.13;;;11.06;54.20
77288;BME280;66345;42.694;23.346;2023-10-08T01:04:55;95941.56;;;11.13;53.91
77288;BME280;66345;42.694;23.346;2023-10-08T01:07:22;95942.56;;;11.12;53.89
77288;BME280;66345;42.694;23.346;2023-10-08T01:09:49;95939.00;;;11.20;53.97
77288;BME280;66345;42.694;23.346;2023-10-08T01:12:20;95944.41;;;11.11;54.26
77288;BME280;66345;42.694;23.346;2023-10-08T01:14:53;95930.34;;;11.03;54.61
77288;BME280;66345;42.694;23.346;2023-10-08T01:17:21;95926.19;;;10.86;55.06
77288;BME280;66345;42.694;23.346;2023-10-08T01:19:50;95925.00;;;10.73;55.34
77288;BME280;66345;42.694;23.346;2023-10-08T01:22:21;95922.97;;;10.75;54.30
77288;BME280;66345;42.694;23.346;2023-10-08T01:24:52;95921.69;;;10.48;54.94
77288;BME280;66345;42.694;23.346;2023-10-08T01:27:18;95920.28;;;10.61;54.47
77288;BME280;66345;42.694;23.346;2023-10-08T01:29:51;95938.16;;;10.67;54.16
77288;BME280;66345;42.694;23.346;2023-10-08T01:32:20;95936.59;;;10.49;55.14
77288;BME280;66345;42.694;23.346;2023-10-08T01:34:46;95946.25;;;10.42;56.22
77288;BME280;66345;42.694;23.346;2023-10-08T01:37:16;95927.66;;;10.19;56.66
77288;BME280;66345;42.694;23.346;2023-10-08T01:39:45;95925.28;;;10.33;56.44
77288;BME280;66345;42.694;23.346;2023-10-08T01:42:12;95936.78;;;10.48;55.50
77288;BME280;66345;42.694;23.346;2023-10-08T01:44:50;95931.97;;;10.20;56.61
77288;BME280;66345;42.694;23.346;2023-10-08T01:47:20;95938.25;;;10.27;56.58
77288;BME280;66345;42.694;23.346;2023-10-08T01:49:51;95947.72;;;10.22;56.48
77288;BME280;66345;42.694;23.346;2023-10-08T01:52:22;95935.94;;;10.24;56.06
77288;BME280;66345;42.694;23.346;2023-10-08T01:54:48;95932.66;;;10.22;55.95
77288;BME280;66345;42.694;23.346;2023-10-08T01:57:15;95934.97;;;10.17;56.26
77288;BME280;66345;42.694;23.346;2023-10-08T01:59:40;95930.44;;;9.95;57.40
77288;BME280;66345;42.694;23.346;2023-10-08T02:02:06;95936.06;;;9.69;58.06
77288;BME280;66345;42.694;23.346;2023-10-08T02:04:35;95937.19;;;9.66;58.46
77288;BME280;66345;42.694;23.346;2023-10-08T02:07:04;95940.28;;;9.39;59.15
77288;BME280;66345;42.694;23.346;2023-10-08T02:09:33;95930.03;;;9.36;58.54
77288;BME280;66345;42.694;23.346;2023-10-08T02:11:58;95931.50;;;9.47;59.08
77288;BME280;66345;42.694;23.346;2023-10-08T02:14:24;95937.94;;;9.44;59.54
77288;BME280;66345;42.694;23.346;2023-10-08T02:16:51;95943.25;;;9.36;59.58
77288;BME280;66345;42.694;23.346;2023-10-08T02:19:22;95939.00;;;9.18;59.88
77288;BME280;66345;42.694;23.346;2023-10-08T02:21:56;95931.03;;;9.27;60.27
77288;BME280;66345;42.694;23.346;2023-10-08T02:24:26;95924.94;;;9.26;60.13
77288;BME280;66345;42.694;23.346;2023-10-08T02:26:55;95935.31;;;9.36;59.80
77288;BME280;66345;42.694;23.346;2023-10-08T02:29:25;95936.13;;;9.53;59.62
77288;BME280;66345;42.694;23.346;2023-10-08T02:31:51;95938.91;;;9.51;59.64
77288;BME280;66345;42.694;23.346;2023-10-08T02:34:18;95929.69;;;9.39;59.65
77288;BME280;66345;42.694;23.346;2023-10-08T02:36:48;95909.47;;;9.46;59.36
77288;BME280;66345;42.694;23.346;2023-10-08T02:39:15;95920.06;;;9.46;60.19
77288;BME280;66345;42.694;23.346;2023-10-08T02:41:48;95918.44;;;9.29;60.93
77288;BME280;66345;42.694;23.346;2023-10-08T02:44:15;95921.25;;;9.35;60.72
77288;BME280;66345;42.694;23.346;2023-10-08T02:46:42;95908.97;;;9.42;60.50
77288;BME280;66345;42.694;23.346;2023-10-08T02:49:11;95933.47;;;9.53;60.65
77288;BME280;66345;42.694;23.346;2023-10-08T02:51:38;95926.38;;;9.37;61.23
77288;BME280;66345;42.694;23.346;2023-10-08T02:54:05;95926.59;;;9.19;62.65
77288;BME280;66345;42.694;23.346;2023-10-08T02:56:32;95922.09;;;9.28;62.54
77288;BME280;66345;42.694;23.346;2023-10-08T02:58:59;95926.09;;;9.24;62.25
77288;BME280;66345;42.694;23.346;2023-10-08T03:01:26;95939.69;;;9.12;62.82
77288;BME280;66345;42.694;23.346;2023-10-08T03:03:51;95917.84;;;9.10;62.71
77288;BME280;66345;42.694;23.346;2023-10-08T03:06:27;95928.09;;;9.13;62.25
77288;BME280;66345;42.694;23.346;2023-10-08T03:08:53;95923.28;;;9.25;62.42
77288;BME280;66345;42.694;23.346;2023-10-08T03:11:20;95916.00;;;9.19;62.89
77288;BME280;66345;42.694;23.346;2023-10-08T03:13:51;95921.16;;;9.04;63.51
77288;BME280;66345;42.694;23.346;2023-10-08T03:16:17;95918.19;;;8.91;63.94
77288;BME280;66345;42.694;23.346;2023-10-08T03:18:47;95918.72;;;8.86;64.23
77288;BME280;66345;42.694;23.346;2023-10-08T03:21:15;95935.59;;;8.94;64.43
77288;BME280;66345;42.694;23.346;2023-10-08T03:23:59;95915.56;;;8.75;64.79
77288;BME280;66345;42.694;23.346;2023-10-08T03:26:25;95924.03;;;8.62;65.29
77288;BME280;66345;42.694;23.346;2023-10-08T03:28:56;95926.50;;;8.64;65.56
77288;BME280;66345;42.694;23.346;2023-10-08T03:31:25;95923.34;;;8.76;65.25
77288;BME280;66345;42.694;23.346;2023-10-08T03:34:11;95915.41;;;9.01;64.26
77288;BME280;66345;42.694;23.346;2023-10-08T03:36:41;95920.03;;;9.07;64.12
77288;BME280;66345;42.694;23.346;2023-10-08T03:39:13;95905.41;;;9.19;63.88
77288;BME280;66345;42.694;23.346;2023-10-08T03:41:40;95922.00;;;9.05;64.67
77288;BME280;66345;42.694;23.346;2023-10-08T03:44:06;95898.69;;;8.84;65.25
77288;BME280;66345;42.694;23.346;2023-10-08T03:46:38;95899.03;;;8.89;64.60
77288;BME280;66345;42.694;23.346;2023-10-08T03:49:06;95924.81;;;9.03;64.70
77288;BME280;66345;42.694;23.346;2023-10-08T03:51:40;95893.41;;;9.00;64.42
77288;BME280;66345;42.694;23.346;2023-10-08T03:54:08;95901.16;;;9.02;64.38
77288;BME280;66345;42.694;23.346;2023-10-08T03:56:45;95900.84;;;8.97;64.10
77288;BME280;66345;42.694;23.346;2023-10-08T03:59:15;95908.25;;;9.09;64.51
77288;BME280;66345;42.694;23.346;2023-10-08T04:01:58;95888.63;;;8.79;64.90
77288;BME280;66345;42.694;23.346;2023-10-08T04:04:44;95889.97;;;8.59;66.09
77288;BME280;66345;42.694;23.346;2023-10-08T04:07:18;95906.66;;;8.68;66.32
77288;BME280;66345;42.694;23.346;2023-10-08T04:09:50;95888.31;;;8.58;66.73
77288;BME280;66345;42.694;23.346;2023-10-08T04:12:30;95916.88;;;9.03;65.41
77288;BME280;66345;42.694;23.346;2023-10-08T04:15:03;95902.97;;;9.09;64.46
77288;BME280;66345;42.694;23.346;2023-10-08T04:17:36;95899.13;;;9.20;63.96
77288;BME280;66345;42.694;23.346;2023-10-08T04:20:13;95880.56;;;9.28;63.30
77288;BME280;66345;42.694;23.346;2023-10-08T04:22:59;95890.16;;;9.37;63.06
77288;BME280;66345;42.694;23.346;2023-10-08T04:25:29;95892.09;;;9.43;63.28
77288;BME280;66345;42.694;23.346;2023-10-08T04:27:55;95892.63;;;9.39;62.34
77288;BME280;66345;42.694;23.346;2023-10-08T04:30:33;95890.94;;;9.46;61.58
77288;BME280;66345;42.694;23.346;2023-10-08T04:33:03;95897.94;;;9.31;62.76
77288;BME280;66345;42.694;23.346;2023-10-08T04:35:35;95898.22;;;9.44;62.35
77288;BME280;66345;42.694;23.346;2023-10-08T04:38:14;95879.75;;;9.20;63.21
77288;BME280;66345;42.694;23.346;2023-10-08T04:40:43;95888.59;;;8.96;64.01
77288;BME280;66345;42.694;23.346;2023-10-08T04:43:19;95882.13;;;9.14;62.92
77288;BME280;66345;42.694;23.346;2023-10-08T04:46:02;95906.50;;;9.41;62.69
77288;BME280;66345;42.694;23.346;2023-10-08T04:48:45;95896.75;;;9.41;62.30
77288;BME280;66345;42.694;23.346;2023-10-08T04:51:11;95894.59;;;9.37;62.69
77288;BME280;66345;42.694;23.346;2023-10-08T04:53:38;95911.66;;;9.34;62.87
77288;BME280;66345;42.694;23.346;2023-10-08T04:56:09;95900.13;;;9.19;63.96
77288;BME280;66345;42.694;23.346;2023-10-08T04:58:47;95913.03;;;9.22;64.65
77288;BME280;66345;42.694;23.346;2023-10-08T05:01:14;95896.63;;;9.27;63.62
77288;BME280;66345;42.694;23.346;2023-10-08T05:03:54;95903.00;;;9.49;63.09
77288;BME280;66345;42.694;23.346;2023-10-08T05:06:27;95905.16;;;9.53;62.92
77288;BME280;66345;42.694;23.346;2023-10-08T05:08:58;95909.22;;;9.64;62.31
77288;BME280;66345;42.694;23.346;2023-10-08T05:11:24;95909.16;;;9.41;63.91
77288;BME280;66345;42.694;23.346;2023-10-08T05:13:50;95909.88;;;9.27;64.30
77288;BME280;66345;42.694;23.346;2023-10-08T05:16:31;95913.34;;;9.27;64.08
77288;BME280;66345;42.694;23.346;2023-10-08T05:19:13;95919.28;;;9.29;64.19
77288;BME280;66345;42.694;23.346;2023-10-08T05:21:57;95910.91;;;9.57;62.73
77288;BME280;66345;42.694;23.346;2023-10-08T05:24:41;95928.38;;;9.74;62.46
77288;BME280;66345;42.694;23.346;2023-10-08T05:27:16;95915.72;;;9.61;63.21
77288;BME280;66345;42.694;23.346;2023-10-08T05:30:02;95909.72;;;9.67;62.14
77288;BME280;66345;42.694;23.346;2023-10-08T05:32:42;95909.94;;;9.89;62.70
77288;BME280;66345;42.694;23.346;2023-10-08T05:35:25;95902.84;;;10.12;61.57
77288;BME280;66345;42.694;23.346;2023-10-08T05:38:10;95906.44;;;10.19;61.47
77288;BME280;66345;42.694;23.346;2023-10-08T05:40:43;95912.41;;;10.21;61.03
77288;BME280;66345;42.694;23.346;2023-10-08T05:43:27;95903.63;;;10.21;61.21
77288;BME280;66345;42.694;23.346;2023-10-08T05:46:19;95909.91;;;10.28;61.27
77288;BME280;66345;42.694;23.346;2023-10-08T05:48:48;95925.72;;;10.44;60.25
77288;BME280;66345;42.694;23.346;2023-10-08T05:51:28;95914.25;;;10.67;58.10
77288;BME280;66345;42.694;23.346;2023-10-08T05:54:32;95913.06;;;11.22;55.46
77288;BME280;66345;42.694;23.346;2023-10-08T05:57:01;95901.44;;;11.67;55.30
77288;BME280;66345;42.694;23.346;2023-10-08T05:59:47;95911.03;;;12.34;54.51
77288;BME280;66345;42.694;23.346;2023-10-08T06:02:22;95928.50;;;13.35;51.43
77288;BME280;66345;42.694;23.346;2023-10-08T06:04:54;95892.34;;;14.83;46.85
77288;BME280;66345;42.694;23.346;2023-10-08T06:07:41;95918.53;;;15.85;44.20
77288;BME280;66345;42.694;23.346;2023-10-08T06:10:20;95906.03;;;17.18;40.30
77288;BME280;66345;42.694;23.346;2023-10-08T06:13:03;95880.63;;;18.68;37.50
77288;BME280;66345;42.694;23.346;2023-10-08T06:15:39;95884.44;;;19.72;35.23
77288;BME280;66345;42.694;23.346;2023-10-08T06:18:18;95880.94;;;20.64;33.98
77288;BME280;66345;42.694;23.346;2023-10-08T06:20:45;95904.94;;;20.94;32.83
77288;BME280;66345;42.694;23.346;2023-10-08T06:23:17;95879.03;;;21.26;31.60
77288;BME280;66345;42.694;23.346;2023-10-08T06:25:52;95876.75;;;23.47;28.15
77288;BME280;66345;42.694;23.346;2023-10-08T06:28:25;95897.75;;;24.15;27.29
77288;BME280;66345;42.694;23.346;2023-10-08T06:30:53;95896.50;;;23.43;28.19
77288;BME280;66345;42.694;23.346;2023-10-08T06:33:20;95894.72;;;23.59;27.48
77288;BME280;66345;42.694;23.346;2023-10-08T06:35:46;95887.97;;;24.76;26.00
77288;BME280;66345;42.694;23.346;2023-10-08T06:38:27;95881.81;;;25.47;24.76
77288;BME280;66345;42.694;23.346;2023-10-08T06:40:57;95891.00;;;25.61;24.40
77288;BME280;66345;42.694;23.346;2023-10-08T06:43:26;95895.84;;;23.63;27.21
77288;BME280;66345;42.694;23.346;2023-10-08T06:45:52;95882.72;;;23.49;27.52
77288;BME280;66345;42.694;23.346;2023-10-08T06:48:19;95885.53;;;24.85;25.60
77288;BME280;66345;42.694;23.346;2023-10-08T06:50:49;95880.19;;;25.10;25.31
77288;BME280;66345;42.694;23.346;2023-10-08T06:53:15;95897.25;;;25.67;24.24
77288;BME280;66345;42.694;23.346;2023-10-08T06:55:46;95879.34;;;26.61;23.29
77288;BME280;66345;42.694;23.346;2023-10-08T06:58:14;95876.97;;;26.89;22.79
77288;BME280;66345;42.694;23.346;2023-10-08T07:00:40;95879.88;;;27.42;22.57
77288;BME280;66345;42.694;23.346;2023-10-08T07:03:13;95866.25;;;28.00;21.67
77288;BME280;66345;42.694;23.346;2023-10-08T07:05:49;95857.09;;;28.38;21.21
77288;BME280;66345;42.694;23.346;2023-10-08T07:08:28;95878.25;;;26.62;22.91
77288;BME280;66345;42.694;23.346;2023-10-08T07:10:57;95875.44;;;28.75;21.07
77288;BME280;66345;42.694;23.346;2023-10-08T07:13:24;95871.94;;;27.11;23.02
77288;BME280;66345;42.694;23.346;2023-10-08T07:15:52;95867.06;;;27.76;22.10
77288;BME280;66345;42.694;23.346;2023-10-08T07:18:18;95879.03;;;28.52;21.69
77288;BME280;66345;42.694;23.346;2023-10-08T07:20:56;95859.66;;;30.99;18.45
77288;BME280;66345;42.694;23.346;2023-10-08T07:23:27;95861.84;;;29.27;19.93
77288;BME280;66345;42.694;23.346;2023-10-08T07:25:55;95880.31;;;30.00;19.31
77288;BME280;66345;42.694;23.346;2023-10-08T07:28:39;95852.59;;;27.47;21.92
77288;BME280;66345;42.694;23.346;2023-10-08T07:31:15;95857.69;;;30.36;19.23
77288;BME280;66345;42.694;23.346;2023-10-08T07:33:42;95867.06;;;31.21;18.43
77288;BME280;66345;42.694;23.346;2023-10-08T07:36:10;95851.00;;;30.70;18.62
77288;BME280;66345;42.694;23.346;2023-10-08T07:38:46;95853.69;;;31.64;18.23
77288;BME280;66345;42.694;23.346;2023-10-08T07:41:13;95848.75;;;30.44;19.64
77288;BME280;66345;42.694;23.346;2023-10-08T07:43:40;95839.13;;;28.94;20.80
77288;BME280;66345;42.694;23.346;2023-10-08T07:46:07;95841.41;;;29.57;20.29
77288;BME280;66345;42.694;23.346;2023-10-08T07:48:34;95822.50;;;30.29;19.52
77288;BME280;66345;42.694;23.346;2023-10-08T07:51:00;95832.94;;;30.55;19.47
77288;BME280;66345;42.694;23.346;2023-10-08T07:53:25;95818.66;;;30.30;19.49
77288;BME280;66345;42.694;23.346;2023-10-08T07:56:04;95819.88;;;31.10;19.29
77288;BME280;66345;42.694;23.346;2023-10-08T07:58:35;95816.03;;;31.56;18.25
77288;BME280;66345;42.694;23.346;2023-10-08T08:01:06;95825.53;;;28.70;20.79
77288;BME280;66345;42.694;23.346;2023-10-08T08:03:36;95825.47;;;27.60;22.86
77288;BME280;66345;42.694;23.346;2023-10-08T08:06:09;95822.72;;;28.37;22.00
77288;BME280;66345;42.694;23.346;2023-10-08T08:08:36;95819.88;;;28.00;22.75
77288;BME280;66345;42.694;23.346;2023-10-08T08:11:05;95803.06;;;29.43;20.89
77288;BME280;66345;42.694;23.346;2023-10-08T08:13:38;95811.19;;;30.08;20.49
77288;BME280;66345;42.694;23.346;2023-10-08T08:16:04;95796.69;;;27.73;22.79
77288;BME280;66345;42.694;23.346;2023-10-08T08:18:48;95798.44;;;27.06;23.75
77288;BME280;66345;42.694;23.346;2023-10-08T08:21:18;95796.81;;;26.06;24.62
77288;BME280;66345;42.694;23.346;2023-10-08T08:23:46;95795.75;;;26.07;24.54
77288;BME280;66345;42.694;23.346;2023-10-08T08:26:18;95786.41;;;26.73;24.04
77288;BME280;66345;42.694;23.346;2023-10-08T08:29:00;95790.00;;;26.14;24.68
77288;BME280;66345;42.694;23.346;2023-10-08T08:31:29;95786.56;;;25.93;25.46
77288;BME280;66345;42.694;23.346;2023-10-08T08:34:01;95775.47;;;25.69;25.81
77288;BME280;66345;42.694;23.346;2023-10-08T08:36:29;95768.22;;;26.14;25.04
77288;BME280;66345;42.694;23.346;2023-10-08T08:38:57;95770.31;;;27.10;23.48
77288;BME280;66345;42.694;23.346;2023-10-08T08:41:23;95767.25;;;26.49;25.00
77288;BME280;66345;42.694;23.346;2023-10-08T08:43:52;95786.13;;;25.55;25.95
77288;BME280;66345;42.694;23.346;2023-10-08T08:46:32;95770.91;;;25.49;24.83
77288;BME280;66345;42.694;23.346;2023-10-08T08:49:02;95764.59;;;25.74;23.12
77288;BME280;66345;42.694;23.346;2023-10-08T08:51:29;95761.59;;;25.86;22.60
77288;BME280;66345;42.694;23.346;2023-10-08T08:53:55;95755.28;;;26.45;22.00
77288;BME280;66345;42.694;23.346;2023-10-08T08:56:21;95759.84;;;26.10;21.66
77288;BME280;66345;42.694;23.346;2023-10-08T08:58:49;95755.50;;;26.04;22.45
77288;BME280;66345;42.694;23.346;2023-10-08T09:01:16;95753.00;;;25.48;22.62
77288;BME280;66345;42.694;23.346;2023-10-08T09:03:43;95753.75;;;25.54;22.54
77288;BME280;66345;42.694;23.346;2023-10-08T09:06:08;95746.34;;;26.39;22.73
77288;BME280;66345;42.694;23.346;2023-10-08T09:08:35;95739.28;;;28.07;20.34
77288;BME280;66345;42.694;23.346;2023-10-08T09:11:02;95743.28;;;28.34;19.62
77288;BME280;66345;42.694;23.346;2023-10-08T09:13:31;95741.66;;;27.18;20.33
77288;BME280;66345;42.694;23.346;2023-10-08T09:16:26;95739.81;;;27.14;20.66
77288;BME280;66345;42.694;23.346;2023-10-08T09:18:52;95730.44;;;28.15;19.27
77288;BME280;66345;42.694;23.346;2023-10-08T09:21:19;95730.75;;;28.52;19.23
77288;BME280;66345;42.694;23.346;2023-10-08T09:23:52;95734.22;;;29.55;18.52
77288;BME280;66345;42.694;23.346;2023-10-08T09:26:23;95724.41;;;29.08;18.26
77288;BME280;66345;42.694;23.346;2023-10-08T09:28:54;95734.28;;;29.36;18.38
77288;BME280;66345;42.694;23.346;2023-10-08T09:31:23;95730.84;;;30.27;17.52
77288;BME280;66345;42.694;23.346;2023-10-08T09:33:55;95725.75;;;29.38;18.53
77288;BME280;66345;42.694;23.346;2023-10-08T09:36:29;95739.06;;;27.80;19.69
77288;BME280;66345;42.694;23.346;2023-10-08T09:39:01;95729.38;;;27.45;19.84
77288;BME280;66345;42.694;23.346;2023-10-08T09:41:42;95725.44;;;28.04;20.11
77288;BME280;66345;42.694;23.346;2023-10-08T09:44:08;95717.19;;;28.46;19.33
77288;BME280;66345;42.694;23.346;2023-10-08T09:46:37;95691.47;;;28.10;19.67
77288;BME280;66345;42.694;23.346;2023-10-08T09:49:04;95704.56;;;28.32;20.00
77288;BME280;66345;42.694;23.346;2023-10-08T09:51:39;95710.53;;;26.90;20.82
77288;BME280;66345;42.694;23.346;2023-10-08T09:54:10;95704.31;;;26.55;20.99
77288;BME280;66345;42.694;23.346;2023-10-08T09:56:42;95707.78;;;25.78;22.25
77288;BME280;66345;42.694;23.346;2023-10-08T09:59:10;95704.88;;;25.49;22.82
77288;BME280;66345;42.694;23.346;2023-10-08T10:01:40;95708.25;;;24.84;23.68
77288;BME280;66345;42.694;23.346;2023-10-08T10:04:10;95706.34;;;24.29;23.73
77288;BME280;66345;42.694;23.346;2023-10-08T10:06:37;95697.09;;;24.04;24.70
77288;BME280;66345;42.694;23.346;2023-10-08T10:09:07;95710.34;;;24.01;24.63
77288;BME280;66345;42.694;23.346;2023-10-08T10:11:47;95697.59;;;23.96;25.16
77288;BME280;66345;42.694;23.346;2023-10-08T10:14:13;95682.50;;;24.36;25.02
77288;BME280;66345;42.694;23.346;2023-10-08T10:16:39;95690.03;;;25.00;23.69
77288;BME280;66345;42.694;23.346;2023-10-08T10:19:21;95665.66;;;26.14;21.99
77288;BME280;66345;42.694;23.346;2023-10-08T10:21:48;95665.13;;;27.38;20.16
77288;BME280;66345;42.694;23.346;2023-10-08T10:24:32;95682.38;;;27.05;20.45
77288;BME280;66345;42.694;23.346;2023-10-08T10:27:36;95689.38;;;26.53;21.53
77288;BME280;66345;42.694;23.346;2023-10-08T10:30:11;95673.72;;;26.29;21.92
77288;BME280;66345;42.694;23.346;2023-10-08T10:33:00;95661.28;;;26.23;22.48
77288;BME280;66345;42.694;23.346;2023-10-08T10:35:28;95669.25;;;26.10;22.61
77288;BME280;66345;42.694;23.346;2023-10-08T10:37:54;95662.75;;;25.46;23.65
77288;BME280;66345;42.694;23.346;2023-10-08T10:40:24;95666.34;;;25.36;24.24
77288;BME280;66345;42.694;23.346;2023-10-08T10:43:08;95671.06;;;24.70;25.15
77288;BME280;66345;42.694;23.346;2023-10-08T10:45:43;95674.03;;;24.17;25.79
77288;BME280;66345;42.694;23.346;2023-10-08T10:48:12;95649.88;;;23.90;26.05
77288;BME280;66345;42.694;23.346;2023-10-08T10:50:50;95659.91;;;23.85;26.83
77288;BME280;66345;42.694;23.346;2023-10-08T10:53:46;95645.41;;;23.53;26.53
77288;BME280;66345;42.694;23.346;2023-10-08T10:56:23;95641.09;;;23.52;27.25
77288;BME280;66345;42.694;23.346;2023-10-08T10:59:08;95646.19;;;23.39;27.00
77288;BME280;66345;42.694;23.346;2023-10-08T11:02:26;95614.72;;;23.22;27.76
77288;BME280;66345;42.694;23.346;2023-10-08T11:04:56;95623.41;;;23.35;27.72
77288;BME280;66345;42.694;23.346;2023-10-08T11:07:32;95631.00;;;23.33;27.63
77288;BME280;66345;42.694;23.346;2023-10-08T11:10:06;95626.41;;;23.38;27.57
77288;BME280;66345;42.694;23.346;2023-10-08T11:12:35;95629.66;;;23.35;27.84
77288;BME280;66345;42.694;23.346;2023-10-08T11:15:12;95619.31;;;23.22;27.47
77288;BME280;66345;42.694;23.346;2023-10-08T11:17:44;95627.16;;;23.23;27.60
77288;BME280;66345;42.694;23.346;2023-10-08T11:20:26;95618.22;;;23.23;27.20
77288;BME280;66345;42.694;23.346;2023-10-08T11:22:52;95621.25;;;23.32;27.36
77288;BME280;66345;42.694;23.346;2023-10-08T11:25:25;95614.50;;;23.39;27.74
77288;BME280;66345;42.694;23.346;2023-10-08T11:27:57;95606.09;;;23.41;27.63
77288;BME280;66345;42.694;23.346;2023-10-08T11:30:34;95607.84;;;23.67;26.91
77288;BME280;66345;42.694;23.346;2023-10-08T11:33:00;95609.75;;;23.77;27.07
77288;BME280;66345;42.694;23.346;2023-10-08T11:35:31;95598.91;;;23.77;27.08
77288;BME280;66345;42.694;23.346;2023-10-08T11:38:00;95594.03;;;23.94;26.81
77288;BME280;66345;42.694;23.346;2023-10-08T11:40:28;95605.41;;;24.01;27.14
77288;BME280;66345;42.694;23.346;2023-10-08T11:42:57;95606.75;;;23.78;27.56
77288;BME280;66345;42.694;23.346;2023-10-08T11:45:28;95612.63;;;23.55;27.80
77288;BME280;66345;42.694;23.346;2023-10-08T11:48:06;95618.16;;;23.75;27.60
77288;BME280;66345;42.694;23.346;2023-10-08T11:50:38;95598.31;;;23.60;28.02
77288;BME280;66345;42.694;23.346;2023-10-08T11:53:04;95601.53;;;23.51;28.16
77288;BME280;66345;42.694;23.346;2023-10-08T11:55:33;95587.41;;;23.39;28.32
77288;BME280;66345;42.694;23.346;2023-10-08T11:58:08;95592.81;;;23.29;28.59
77288;BME280;66345;42.694;23.346;2023-10-08T12:00:41;95576.00;;;23.22;28.64
77288;BME280;66345;42.694;23.346;2023-10-08T12:03:13;95575.44;;;23.25;28.84
77288;BME280;66345;42.694;23.346;2023-10-08T12:05:45;95597.13;;;23.30;28.85
77288;BME280;66345;42.694;23.346;2023-10-08T12:08:21;95588.75;;;23.37;29.01
77288;BME280;66345;42.694;23.346;2023-10-08T12:10:47;95585.00;;;23.43;29.20
77288;BME280;66345;42.694;23.346;2023-10-08T12:13:17;95575.50;;;23.45;29.18
77288;BME280;66345;42.694;23.346;2023-10-08T12:15:43;95572.88;;;23.61;28.94
77288;BME280;66345;42.694;23.346;2023-10-08T12:18:10;95576.59;;;23.49;28.63
77288;BME280;66345;42.694;23.346;2023-10-08T12:20:50;95585.59;;;23.60;28.85
77288;BME280;66345;42.694;23.346;2023-10-08T12:23:16;95595.63;;;23.70;28.82
77288;BME280;66345;42.694;23.346;2023-10-08T12:26:12;95588.06;;;23.67;29.42
77288;BME280;66345;42.694;23.346;2023-10-08T12:28:45;95586.97;;;23.73;29.12
77288;BME280;66345;42.694;23.346;2023-10-08T12:31:30;95574.22;;;23.63;28.92
77288;BME280;66345;42.694;23.346;2023-10-08T12:33:59;95577.69;;;23.53;29.30
77288;BME280;66345;42.694;23.346;2023-10-08T12:36:26;95585.25;;;23.46;29.50
77288;BME280;66345;42.694;23.346;2023-10-08T12:39:02;95571.97;;;23.40;29.30
77288;BME280;66345;42.694;23.346;2023-10-08T12:41:34;95580.94;;;23.50;29.05
77288;BME280;66345;42.694;23.346;2023-10-08T12:44:09;95592.59;;;23.56;29.41
77288;BME280;66345;42.694;23.346;2023-10-08T12:46:46;95580.94;;;23.45;29.26
77288;BME280;66345;42.694;23.346;2023-10-08T12:49:14;95576.31;;;23.41;29.51
77288;BME280;66345;42.694;23.346;2023-10-08T12:51:39;95570.88;;;23.41;29.84
77288;BME280;66345;42.694;23.346;2023-10-08T12:54:06;95590.41;;;23.48;29.72
77288;BME280;66345;42.694;23.346;2023-10-08T12:56:34;95581.41;;;23.27;29.86
77288;BME280;66345;42.694;23.346;2023-10-08T12:59:14;95570.53;;;23.07;30.25
77288;BME280;66345;42.694;23.346;2023-10-08T13:04:22;95569.81;;;23.37;30.07
77288;BME280;66345;42.694;23.346;2023-10-08T13:06:57;95565.22;;;23.58;29.70
77288;BME280;66345;42.694;23.346;2023-10-08T13:09:26;95573.34;;;23.58;29.92
77288;BME280;66345;42.694;23.346;2023-10-08T13:11:51;95558.44;;;23.40;29.43
77288;BME280;66345;42.694;23.346;2023-10-08T13:14:17;95557.88;;;23.38;28.93
77288;BME280;66345;42.694;23.346;2023-10-08T13:16:42;95566.31;;;23.51;29.26
77288;BME280;66345;42.694;23.346;2023-10-08T13:19:10;95564.38;;;23.42;28.94
77288;BME280;66345;42.694;23.346;2023-10-08T13:21:36;95557.63;;;23.39;28.85